Terminal Aerodrome Forecast
Issued by NWS

Home | Current Version | Previous Version | Text Only | Print | Product List | Glossary On
Versions: 1 2 3 4 5 6 7 8 9 10 11 12 13 14 15 16
000
FTUS44 KTSA 301400 AAA
TAFBVO
TAF AMD
KBVO 301405Z 3014/0112 18006KT P6SM SKC
      TEMPO 3014/3015 5SM BR
     FM301700 17012G18KT P6SM SCT060
     FM010000 18007KT P6SM SCT250
      TEMPO 0108/0112 4SM BR=

USA.gov is the U.S. government's official web portal to all federal, state and local government web resources and services.